createdAt,value
2023-03-30T00:00:15.072Z,0.52
2023-03-30T00:01:15.472Z,0.52
2023-03-30T00:02:15.176Z,0.52
2023-03-30T00:03:15.319Z,0.51
2023-03-30T00:04:15.582Z,0.52
2023-03-30T00:05:15.500Z,0.52
2023-03-30T00:06:15.396Z,0.52
2023-03-30T00:07:15.450Z,0.52
2023-03-30T00:08:15.494Z,0.50
2023-03-30T00:09:15.556Z,0.51
2023-03-30T00:10:15.607Z,0.51
2023-03-30T00:11:15.676Z,0.51
2023-03-30T00:12:15.701Z,0.51
2023-03-30T00:13:15.763Z,0.51
2023-03-30T00:14:15.802Z,0.51
2023-03-30T00:15:15.866Z,0.51
2023-03-30T00:16:15.956Z,0.51
2023-03-30T00:17:15.974Z,0.50
2023-03-30T00:18:16.015Z,0.51
2023-03-30T00:19:16.078Z,0.51
2023-03-30T00:20:16.152Z,0.51
2023-03-30T00:21:16.048Z,0.51
2023-03-30T00:22:16.030Z,0.51
2023-03-30T00:23:16.053Z,0.51
2023-03-30T00:24:16.032Z,0.52
2023-03-30T00:25:16.033Z,0.52
2023-03-30T00:26:16.003Z,0.51
2023-03-30T00:27:15.990Z,0.51
2023-03-30T00:28:15.969Z,0.51
2023-03-30T00:29:16.018Z,0.51
2023-03-30T00:30:16.070Z,0.51
2023-03-30T00:31:16.138Z,0.51
2023-03-30T00:32:16.164Z,0.52
2023-03-30T00:33:16.209Z,0.52
2023-03-30T00:34:16.281Z,0.51
2023-03-30T00:35:16.319Z,0.52
2023-03-30T00:36:16.627Z,0.52
2023-03-30T00:37:16.396Z,0.52
2023-03-30T00:38:16.448Z,0.51
2023-03-30T00:39:16.555Z,0.53
2023-03-30T00:40:16.571Z,0.51
2023-03-30T00:41:16.645Z,0.52
2023-03-30T00:42:16.684Z,0.52
2023-03-30T00:43:16.742Z,0.52
2023-03-30T00:44:16.776Z,0.51
2023-03-30T00:45:16.846Z,0.52
2023-03-30T00:46:16.936Z,0.52
2023-03-30T00:47:16.983Z,0.51
2023-03-30T00:48:16.986Z,0.52
2023-03-30T00:49:17.053Z,0.52
2023-03-30T00:50:17.094Z,0.51
2023-03-30T00:51:17.082Z,0.51
2023-03-30T00:52:17.057Z,0.51
2023-03-30T00:53:17.059Z,0.51
2023-03-30T00:54:17.085Z,0.49
2023-03-30T00:55:17.038Z,0.51
2023-03-30T00:56:17.027Z,0.50
2023-03-30T00:57:17.024Z,0.51
2023-03-30T00:58:17.005Z,0.51
2023-03-30T00:59:17.004Z,0.51
2023-03-30T01:00:16.974Z,0.51
2023-03-30T01:01:16.997Z,0.51
2023-03-30T01:02:16.967Z,0.51
2023-03-30T01:03:17.016Z,0.53
2023-03-30T01:04:16.946Z,0.53
2023-03-30T01:05:16.914Z,0.51
2023-03-30T01:06:16.917Z,0.52
2023-03-30T01:07:16.954Z,0.52
2023-03-30T01:08:17.014Z,0.52
2023-03-30T01:09:17.086Z,0.51
2023-03-30T01:10:17.119Z,0.50
2023-03-30T01:11:17.162Z,0.53
2023-03-30T01:12:17.234Z,0.53
2023-03-30T01:13:17.277Z,0.52
2023-03-30T01:14:17.350Z,0.51
2023-03-30T01:15:17.376Z,0.51
2023-03-30T01:16:17.553Z,0.51
2023-03-30T01:17:17.479Z,0.50
2023-03-30T01:18:17.525Z,0.51
2023-03-30T01:19:17.586Z,0.51
2023-03-30T01:20:17.647Z,0.52
2023-03-30T01:21:17.684Z,0.51
2023-03-30T01:22:17.721Z,0.50
2023-03-30T01:23:17.771Z,0.51
2023-03-30T01:24:17.834Z,0.50
2023-03-30T01:25:17.880Z,0.51
2023-03-30T01:26:17.937Z,0.52
2023-03-30T01:27:18.007Z,0.51
2023-03-30T01:28:18.052Z,0.52
2023-03-30T01:29:18.111Z,0.52
2023-03-30T01:30:18.158Z,0.53
2023-03-30T01:31:18.302Z,0.52
2023-03-30T01:32:18.285Z,0.53
2023-03-30T01:33:18.359Z,0.52
2023-03-30T01:34:18.401Z,0.52
2023-03-30T01:35:18.518Z,0.51
2023-03-30T01:36:18.578Z,0.53
2023-03-30T01:37:18.577Z,0.52
2023-03-30T01:38:18.639Z,0.51
2023-03-30T01:39:18.706Z,0.52
2023-03-30T01:40:18.753Z,0.50
2023-03-30T01:41:18.827Z,0.51
2023-03-30T01:42:18.890Z,0.51
2023-03-30T01:43:18.950Z,0.51
2023-03-30T01:44:18.982Z,0.49
2023-03-30T01:45:18.935Z,0.51
2023-03-30T01:46:18.942Z,0.51
2023-03-30T01:47:18.931Z,0.50
2023-03-30T01:48:18.904Z,0.50
2023-03-30T01:49:18.902Z,0.51
2023-03-30T01:50:18.911Z,0.50
2023-03-30T01:51:18.879Z,0.51
2023-03-30T01:52:18.871Z,0.52
2023-03-30T01:53:18.894Z,0.52
2023-03-30T01:54:18.938Z,0.51
2023-03-30T01:55:19.000Z,0.50
2023-03-30T01:56:19.052Z,0.51
2023-03-30T01:57:19.157Z,0.51
2023-03-30T01:58:19.155Z,0.51
2023-03-30T01:59:19.205Z,0.52
2023-03-30T02:00:19.253Z,0.51
2023-03-30T02:01:19.330Z,0.51
2023-03-30T02:02:19.363Z,0.52
2023-03-30T02:03:19.561Z,0.52
2023-03-30T02:04:19.476Z,0.52
2023-03-30T02:05:19.469Z,0.52
2023-03-30T02:06:19.470Z,0.52
2023-03-30T02:07:19.451Z,0.53
2023-03-30T02:08:19.454Z,0.53
2023-03-30T02:09:19.459Z,0.53
2023-03-30T02:10:19.444Z,0.54
2023-03-30T02:11:19.483Z,0.54
2023-03-30T02:12:19.451Z,0.53
2023-03-30T02:13:19.430Z,0.53
2023-03-30T02:14:19.462Z,0.53
2023-03-30T02:15:19.527Z,0.54
2023-03-30T02:16:19.602Z,0.53
2023-03-30T02:17:19.639Z,0.52
2023-03-30T02:18:19.633Z,0.52
2023-03-30T02:19:19.630Z,0.53
2023-03-30T02:20:19.635Z,0.53
2023-03-30T02:21:19.600Z,0.54
2023-03-30T02:22:19.632Z,0.54
2023-03-30T02:23:19.759Z,0.52
2023-03-30T02:24:19.586Z,0.52
2023-03-30T02:25:19.572Z,0.53
2023-03-30T02:26:19.612Z,0.53
2023-03-30T02:27:19.622Z,0.52
2023-03-30T02:28:19.774Z,0.52
2023-03-30T02:29:19.731Z,0.53
2023-03-30T02:30:19.792Z,0.52
2023-03-30T02:31:19.879Z,0.52
2023-03-30T02:32:19.917Z,0.53
2023-03-30T02:33:19.928Z,0.53
2023-03-30T02:34:19.985Z,0.52
2023-03-30T02:35:20.031Z,0.52
2023-03-30T02:36:20.149Z,0.52
2023-03-30T02:37:20.147Z,0.53
2023-03-30T02:38:20.203Z,0.52
2023-03-30T02:39:20.254Z,0.51
2023-03-30T02:40:20.303Z,0.52
2023-03-30T02:41:20.360Z,0.53
2023-03-30T02:42:20.434Z,0.53
2023-03-30T02:43:20.474Z,0.53
2023-03-30T02:44:20.563Z,0.51
2023-03-30T02:45:20.599Z,0.52
2023-03-30T02:46:20.675Z,0.52
2023-03-30T02:47:20.712Z,0.53
2023-03-30T02:48:20.761Z,0.53
2023-03-30T02:49:20.835Z,0.53
2023-03-30T02:50:20.878Z,0.53
2023-03-30T02:51:20.920Z,0.53
2023-03-30T02:52:20.999Z,0.54
2023-03-30T02:53:21.048Z,0.53
2023-03-30T02:54:21.083Z,0.53
2023-03-30T02:55:21.147Z,0.54
2023-03-30T02:56:21.195Z,0.53
2023-03-30T02:57:21.282Z,0.52
2023-03-30T02:58:21.310Z,0.52
2023-03-30T02:59:21.361Z,0.54
2023-03-30T03:00:21.410Z,0.53
2023-03-30T03:01:21.512Z,0.54
2023-03-30T03:02:21.600Z,0.54
2023-03-30T03:03:21.728Z,0.53
2023-03-30T03:04:21.665Z,0.54
2023-03-30T03:05:21.685Z,0.53
2023-03-30T03:06:21.749Z,0.54
2023-03-30T03:07:21.783Z,0.54
2023-03-30T03:08:21.848Z,0.53
2023-03-30T03:09:21.948Z,0.53
2023-03-30T03:10:21.936Z,0.54
2023-03-30T03:11:21.997Z,0.53
2023-03-30T03:12:22.074Z,0.52
2023-03-30T03:13:22.153Z,0.52
2023-03-30T03:14:22.150Z,0.53
2023-03-30T03:15:22.215Z,0.54
2023-03-30T03:16:22.282Z,0.53
2023-03-30T03:17:22.414Z,0.53
2023-03-30T03:18:22.228Z,0.53
2023-03-30T03:19:22.252Z,0.53
2023-03-30T03:20:22.223Z,0.53
2023-03-30T03:21:22.200Z,0.53
2023-03-30T03:22:22.232Z,0.53
2023-03-30T03:23:22.193Z,0.53
2023-03-30T03:24:22.196Z,0.53
2023-03-30T03:25:22.201Z,0.54
2023-03-30T03:26:22.232Z,0.54
2023-03-30T03:27:22.290Z,0.53
2023-03-30T03:28:22.338Z,0.52
2023-03-30T03:29:22.379Z,0.52
2023-03-30T03:30:22.446Z,0.52
2023-03-30T03:31:22.547Z,0.52
2023-03-30T03:32:22.549Z,0.52
2023-03-30T03:33:22.587Z,0.52
2023-03-30T03:34:22.630Z,0.52
2023-03-30T03:35:22.681Z,0.52
2023-03-30T03:36:22.838Z,0.52
2023-03-30T03:37:22.796Z,0.52
2023-03-30T03:38:22.839Z,0.52
2023-03-30T03:39:22.903Z,0.51
2023-03-30T03:40:22.997Z,0.51
2023-03-30T03:41:23.040Z,0.50
2023-03-30T03:42:23.069Z,0.52
2023-03-30T03:43:23.127Z,0.52
2023-03-30T03:44:23.208Z,0.53
2023-03-30T03:45:23.251Z,0.52
2023-03-30T03:46:23.359Z,0.52
2023-03-30T03:47:23.475Z,0.50
2023-03-30T03:48:23.433Z,0.51
2023-03-30T03:49:23.468Z,0.52
2023-03-30T03:50:23.518Z,0.54
2023-03-30T03:51:23.576Z,0.53
2023-03-30T03:52:23.639Z,0.53
2023-03-30T03:53:23.699Z,0.53
2023-03-30T03:54:23.747Z,0.55
2023-03-30T03:55:23.823Z,0.53
2023-03-30T03:56:23.873Z,0.53
2023-03-30T03:57:24.076Z,0.53
2023-03-30T03:58:23.988Z,0.53
2023-03-30T03:59:24.056Z,0.53
2023-03-30T04:00:24.148Z,0.53
2023-03-30T04:01:24.168Z,0.54
2023-03-30T04:02:24.304Z,0.54
2023-03-30T04:03:24.181Z,0.54
2023-03-30T04:04:24.195Z,0.54
2023-03-30T04:05:24.129Z,0.53
2023-03-30T04:06:24.144Z,0.53
2023-03-30T04:07:24.112Z,0.54
2023-03-30T04:08:24.102Z,0.54
2023-03-30T04:09:24.098Z,0.54
2023-03-30T04:10:24.138Z,0.53
2023-03-30T04:11:24.198Z,0.55
2023-03-30T04:12:24.249Z,0.53
2023-03-30T04:13:24.290Z,0.54
2023-03-30T04:14:24.350Z,0.53
2023-03-30T04:15:24.400Z,0.52
2023-03-30T04:16:24.527Z,0.53
2023-03-30T04:17:24.584Z,0.54
2023-03-30T04:18:24.579Z,0.54
2023-03-30T04:19:24.582Z,0.54
2023-03-30T04:20:24.568Z,0.54
2023-03-30T04:21:24.578Z,0.54
2023-03-30T04:22:24.580Z,0.55
2023-03-30T04:23:24.570Z,0.54
2023-03-30T04:24:24.579Z,0.54
2023-03-30T04:25:24.567Z,0.54
2023-03-30T04:26:24.606Z,0.53
2023-03-30T04:27:24.567Z,0.53
2023-03-30T04:28:24.614Z,0.52
2023-03-30T04:29:24.696Z,0.52
2023-03-30T04:30:24.766Z,0.53
2023-03-30T04:31:24.836Z,0.53
2023-03-30T04:32:24.894Z,0.54
2023-03-30T04:33:24.901Z,0.52
2023-03-30T04:34:24.947Z,0.52
2023-03-30T04:35:25.003Z,0.52
2023-03-30T04:36:25.070Z,0.52
2023-03-30T04:37:25.110Z,0.52
2023-03-30T04:38:25.177Z,0.52
2023-03-30T04:39:25.217Z,0.53
2023-03-30T04:40:25.281Z,0.52
2023-03-30T04:41:25.258Z,0.52
2023-03-30T04:42:25.260Z,0.52
2023-03-30T04:43:25.256Z,0.52
2023-03-30T04:44:25.254Z,0.53
2023-03-30T04:45:25.243Z,0.52
2023-03-30T04:46:25.248Z,0.52
2023-03-30T04:47:25.241Z,0.53
2023-03-30T04:48:25.229Z,0.53
2023-03-30T04:49:25.225Z,0.54
2023-03-30T04:50:25.241Z,0.54
2023-03-30T04:51:25.239Z,0.54
2023-03-30T04:52:25.215Z,0.54
2023-03-30T04:53:25.237Z,0.54
2023-03-30T04:54:25.242Z,0.54
2023-03-30T04:55:25.239Z,0.54
2023-03-30T04:56:25.212Z,0.53
2023-03-30T04:57:25.251Z,0.54
2023-03-30T04:58:25.211Z,0.54
2023-03-30T04:59:25.190Z,0.54
2023-03-30T05:00:25.185Z,0.54
2023-03-30T05:01:25.231Z,0.53
2023-03-30T05:02:25.239Z,0.54
2023-03-30T05:03:25.297Z,0.53
2023-03-30T05:04:25.156Z,0.53
2023-03-30T05:05:25.154Z,0.54
2023-03-30T05:06:25.192Z,0.53
2023-03-30T05:07:25.196Z,0.53
2023-03-30T05:08:25.225Z,0.53
2023-03-30T05:09:25.299Z,0.54
2023-03-30T05:10:25.336Z,0.52
2023-03-30T05:11:25.403Z,0.53
2023-03-30T05:12:25.480Z,0.54
2023-03-30T05:13:25.508Z,0.53
2023-03-30T05:14:25.569Z,0.53
2023-03-30T05:15:25.617Z,0.53
2023-03-30T05:16:25.706Z,0.52
2023-03-30T05:17:25.750Z,0.52
2023-03-30T05:18:25.776Z,0.53
2023-03-30T05:19:25.845Z,0.53
2023-03-30T05:20:25.892Z,0.52
2023-03-30T05:21:25.944Z,0.52
2023-03-30T05:22:26.013Z,0.52
2023-03-30T05:23:26.009Z,0.52
2023-03-30T05:24:26.021Z,0.52
2023-03-30T05:25:25.996Z,0.53
2023-03-30T05:26:26.029Z,0.53
2023-03-30T05:27:26.011Z,0.53
2023-03-30T05:28:25.985Z,0.54
2023-03-30T05:29:25.987Z,0.52
2023-03-30T05:30:25.984Z,0.52
2023-03-30T05:31:26.008Z,0.53
2023-03-30T05:32:26.010Z,0.53
2023-03-30T05:33:25.995Z,0.55
2023-03-30T05:34:25.971Z,0.59
2023-03-30T05:35:25.969Z,0.64
2023-03-30T05:36:25.973Z,0.78
2023-03-30T05:37:25.969Z,0.86
2023-03-30T05:38:26.040Z,0.92
2023-03-30T05:39:26.177Z,0.98
2023-03-30T05:40:26.264Z,1.03
2023-03-30T05:41:26.214Z,1.07
2023-03-30T05:42:26.282Z,1.18
2023-03-30T05:43:26.419Z,1.31
2023-03-30T05:44:26.410Z,1.39
2023-03-30T05:45:26.462Z,1.52
2023-03-30T05:46:26.496Z,1.52
2023-03-30T05:47:26.475Z,1.55
2023-03-30T05:48:26.512Z,1.53
2023-03-30T05:49:27.379Z,1.57
2023-03-30T05:50:26.446Z,1.63
2023-03-30T05:51:26.552Z,1.69
2023-03-30T05:52:26.446Z,1.80
2023-03-30T05:53:26.417Z,1.87
2023-03-30T05:54:26.459Z,1.91
2023-03-30T05:55:26.412Z,1.90
2023-03-30T05:56:26.419Z,1.88
2023-03-30T05:57:26.500Z,1.90
2023-03-30T05:58:26.388Z,1.86
2023-03-30T05:59:26.422Z,1.84
2023-03-30T06:00:26.488Z,1.86
2023-03-30T06:01:26.459Z,1.86
2023-03-30T06:02:26.496Z,1.86
2023-03-30T06:03:26.567Z,1.86
2023-03-30T06:04:26.480Z,1.82
2023-03-30T06:05:26.500Z,1.74
2023-03-30T06:06:26.437Z,1.75
2023-03-30T06:07:26.467Z,1.73
2023-03-30T06:08:26.409Z,1.70
2023-03-30T06:09:26.406Z,1.71
2023-03-30T06:10:26.409Z,1.71
2023-03-30T06:11:26.396Z,1.71
2023-03-30T06:12:26.411Z,1.72
2023-03-30T06:13:26.487Z,1.72
2023-03-30T06:14:26.397Z,1.73
2023-03-30T06:15:26.378Z,1.67
2023-03-30T06:16:26.419Z,1.71
2023-03-30T06:17:26.471Z,1.70
2023-03-30T06:18:26.343Z,1.59
2023-03-30T06:19:26.340Z,1.58
2023-03-30T06:20:26.539Z,1.61
2023-03-30T06:21:26.526Z,1.66
2023-03-30T06:22:26.493Z,1.63
2023-03-30T06:23:26.556Z,1.56
2023-03-30T06:24:26.597Z,1.54
2023-03-30T06:25:26.677Z,1.54
2023-03-30T06:26:26.749Z,1.67
2023-03-30T06:27:26.899Z,1.72
2023-03-30T06:28:26.849Z,1.74
2023-03-30T06:29:26.913Z,1.98
2023-03-30T06:30:27.075Z,2.00
2023-03-30T06:31:27.045Z,2.26
2023-03-30T06:32:27.085Z,2.22
2023-03-30T06:33:27.109Z,2.40
2023-03-30T06:34:27.165Z,2.51
2023-03-30T06:35:27.239Z,2.61
2023-03-30T06:36:44.568Z,2.82
2023-03-30T06:37:28.418Z,2.83
2023-03-30T06:38:27.201Z,2.86
2023-03-30T06:39:27.171Z,2.98
2023-03-30T06:40:27.195Z,3.21
2023-03-30T06:41:27.156Z,3.83
2023-03-30T06:42:27.136Z,4.15
2023-03-30T06:43:27.142Z,4.39
2023-03-30T06:44:27.181Z,4.60
2023-03-30T06:45:27.178Z,4.73
2023-03-30T06:46:27.150Z,5.07
2023-03-30T06:47:27.089Z,5.29
2023-03-30T06:48:27.091Z,5.13
2023-03-30T06:49:27.209Z,5.16
2023-03-30T06:50:27.061Z,5.20
2023-03-30T06:51:27.023Z,4.97
2023-03-30T06:52:27.070Z,4.72
2023-03-30T06:53:27.075Z,4.61
2023-03-30T06:54:27.057Z,4.42
2023-03-30T06:55:26.988Z,4.23
2023-03-30T06:56:26.985Z,3.73
2023-03-30T06:57:27.197Z,3.69
2023-03-30T06:58:27.068Z,3.57
2023-03-30T06:59:26.969Z,3.61
2023-03-30T07:00:27.009Z,3.31
2023-03-30T07:01:26.915Z,3.15
2023-03-30T07:02:26.946Z,3.51
2023-03-30T07:03:26.942Z,3.69
2023-03-30T07:04:26.879Z,3.47
2023-03-30T07:05:26.827Z,3.56
2023-03-30T07:06:26.809Z,3.42
2023-03-30T07:07:26.814Z,3.55
2023-03-30T07:08:26.792Z,3.69
2023-03-30T07:09:26.768Z,3.53
2023-03-30T07:10:26.820Z,3.59
2023-03-30T07:11:26.756Z,3.81
2023-03-30T07:12:26.741Z,4.07
2023-03-30T07:13:26.791Z,4.05
2023-03-30T07:14:26.829Z,3.94
2023-03-30T07:15:26.820Z,4.00
2023-03-30T07:16:27.048Z,3.93
2023-03-30T07:17:27.070Z,4.01
2023-03-30T07:18:26.929Z,4.05
2023-03-30T07:19:26.887Z,4.31
2023-03-30T07:20:26.873Z,4.32
2023-03-30T07:21:26.836Z,4.32
2023-03-30T07:22:26.828Z,4.35
2023-03-30T07:23:26.794Z,4.33
2023-03-30T07:24:26.795Z,4.33
2023-03-30T07:25:26.895Z,4.63
2023-03-30T07:26:26.767Z,4.61
2023-03-30T07:27:26.773Z,4.50
2023-03-30T07:28:26.735Z,4.48
2023-03-30T07:29:26.799Z,4.92
2023-03-30T07:30:26.777Z,4.87
2023-03-30T07:31:26.772Z,4.62
2023-03-30T07:32:26.750Z,4.40
2023-03-30T07:33:26.834Z,4.26
2023-03-30T07:34:26.705Z,4.01
2023-03-30T07:35:26.656Z,4.00
2023-03-30T07:36:26.654Z,3.98
2023-03-30T07:37:26.624Z,4.01
2023-03-30T07:38:26.627Z,3.83
2023-03-30T07:39:26.587Z,3.68
2023-03-30T07:40:26.658Z,3.32
2023-03-30T07:41:26.624Z,3.02
2023-03-30T07:42:26.592Z,2.89
2023-03-30T07:43:26.624Z,2.32
2023-03-30T07:44:26.627Z,1.98
2023-03-30T07:45:26.654Z,1.92
2023-03-30T07:46:26.743Z,1.88
2023-03-30T07:47:26.759Z,1.77
2023-03-30T07:48:26.742Z,1.65
2023-03-30T07:49:26.777Z,1.55
2023-03-30T07:50:26.802Z,1.47
2023-03-30T07:51:28.087Z,1.35
2023-03-30T07:52:26.887Z,1.34
2023-03-30T07:53:26.932Z,1.19
2023-03-30T07:54:26.997Z,1.24
2023-03-30T07:55:27.051Z,1.15
2023-03-30T07:56:27.115Z,1.14
2023-03-30T07:57:27.239Z,1.13
2023-03-30T07:58:27.252Z,1.08
2023-03-30T07:59:27.318Z,1.11
2023-03-30T08:00:27.373Z,1.19
2023-03-30T08:01:27.512Z,1.19
2023-03-30T08:02:27.521Z,1.12
2023-03-30T08:03:27.710Z,1.04
2023-03-30T08:04:27.802Z,1.03
2023-03-30T08:05:27.622Z,0.97
2023-03-30T08:06:27.728Z,0.98
2023-03-30T08:07:27.731Z,0.98
2023-03-30T08:08:27.797Z,1.01
2023-03-30T08:09:27.848Z,0.96
2023-03-30T08:10:27.908Z,0.92
2023-03-30T08:11:27.938Z,0.83
2023-03-30T08:12:28.030Z,0.74
2023-03-30T08:13:28.043Z,0.77
2023-03-30T08:14:28.018Z,0.77
2023-03-30T08:15:28.006Z,0.77
2023-03-30T08:16:28.043Z,0.79
2023-03-30T08:17:28.034Z,0.80
2023-03-30T08:18:29.241Z,0.80
2023-03-30T08:19:27.956Z,0.65
2023-03-30T08:20:27.951Z,0.56
2023-03-30T08:21:27.924Z,0.53
2023-03-30T08:22:27.950Z,0.47
2023-03-30T08:23:27.918Z,0.50
2023-03-30T08:24:27.947Z,0.53
2023-03-30T08:25:27.991Z,0.53
2023-03-30T08:26:28.163Z,0.57
2023-03-30T08:27:28.063Z,0.61
2023-03-30T08:28:28.046Z,0.59
2023-03-30T08:29:28.056Z,0.67
2023-03-30T08:30:28.099Z,0.70
2023-03-30T08:31:28.159Z,0.69
2023-03-30T08:32:28.127Z,0.69
2023-03-30T08:33:28.103Z,0.70
2023-03-30T08:34:28.072Z,0.72
2023-03-30T08:35:28.116Z,0.81
2023-03-30T08:36:28.062Z,0.96
2023-03-30T08:37:28.040Z,1.01
2023-03-30T08:38:28.118Z,0.79
2023-03-30T08:39:28.033Z,0.69
2023-03-30T08:40:28.021Z,0.58
2023-03-30T08:41:28.013Z,0.58
2023-03-30T08:42:28.003Z,0.54
2023-03-30T08:43:27.981Z,0.50
2023-03-30T08:44:27.992Z,0.54
2023-03-30T08:45:28.144Z,0.56
2023-03-30T08:46:28.209Z,0.67
2023-03-30T08:47:28.113Z,0.77
2023-03-30T08:48:28.092Z,0.99
2023-03-30T08:49:28.151Z,0.50
2023-03-30T08:50:28.159Z,0.38
2023-03-30T08:51:28.195Z,0.34
2023-03-30T08:52:28.205Z,0.34
2023-03-30T08:53:28.201Z,0.34
2023-03-30T08:54:28.205Z,0.34
2023-03-30T08:55:28.221Z,0.34
2023-03-30T08:56:28.205Z,0.34
2023-03-30T08:57:28.256Z,0.34
2023-03-30T08:58:28.206Z,0.34
2023-03-30T08:59:28.392Z,0.34
2023-03-30T09:00:28.246Z,0.34
2023-03-30T09:01:29.061Z,0.34
2023-03-30T09:02:28.252Z,0.34
2023-03-30T09:03:28.321Z,0.34
2023-03-30T09:04:28.267Z,0.34
2023-03-30T09:05:28.378Z,0.34
2023-03-30T09:06:28.278Z,0.34
2023-03-30T09:07:28.284Z,0.34
2023-03-30T09:08:28.309Z,0.37
2023-03-30T09:09:28.293Z,0.46
2023-03-30T09:10:28.340Z,0.50
2023-03-30T09:11:28.364Z,0.51
2023-03-30T09:12:28.408Z,0.53
2023-03-30T09:13:28.446Z,0.58
2023-03-30T09:14:28.501Z,0.56
2023-03-30T09:15:31.630Z,0.55
2023-03-30T09:16:28.585Z,0.60
2023-03-30T09:17:28.618Z,0.50
2023-03-30T09:18:28.546Z,0.51
2023-03-30T09:19:28.555Z,0.53
2023-03-30T09:20:28.556Z,0.50
2023-03-30T09:21:28.585Z,0.57
2023-03-30T09:22:28.552Z,0.58
2023-03-30T09:23:28.583Z,0.64
2023-03-30T09:24:28.595Z,0.58
2023-03-30T09:25:28.603Z,0.60
2023-03-30T09:26:28.691Z,0.61
2023-03-30T09:27:28.603Z,0.55
2023-03-30T09:28:28.632Z,0.52
2023-03-30T09:29:28.632Z,0.57
2023-03-30T09:30:28.635Z,0.52
2023-03-30T09:31:28.715Z,0.50
2023-03-30T09:32:28.718Z,0.56
2023-03-30T09:33:28.681Z,0.53
2023-03-30T09:34:28.674Z,0.54
2023-03-30T09:35:28.677Z,0.55
2023-03-30T09:36:28.705Z,0.60
2023-03-30T09:37:28.678Z,0.70
2023-03-30T09:38:28.682Z,0.87
2023-03-30T09:39:29.535Z,0.86
2023-03-30T09:40:28.713Z,1.00
2023-03-30T09:41:28.710Z,1.85
2023-03-30T09:42:28.719Z,2.62
2023-03-30T09:43:28.731Z,3.96
2023-03-30T09:44:28.722Z,5.53
2023-03-30T09:45:30.169Z,8.08
2023-03-30T09:46:29.011Z,10.47
2023-03-30T09:47:29.025Z,9.91
2023-03-30T09:48:29.083Z,9.99
2023-03-30T09:49:28.943Z,10.58
2023-03-30T09:50:28.964Z,12.06
2023-03-30T09:51:31.198Z,15.18
2023-03-30T09:52:29.123Z,24.61
2023-03-30T09:53:29.093Z,10.26
2023-03-30T09:54:29.083Z,11.69
2023-03-30T09:55:29.085Z,14.88
2023-03-30T09:56:29.161Z,22.14
2023-03-30T09:57:29.232Z,38.45
2023-03-30T09:58:29.086Z,43.67
2023-03-30T09:59:29.029Z,43.85
2023-03-30T10:00:29.023Z,45.00
2023-03-30T10:01:29.065Z,44.10
2023-03-30T10:02:29.160Z,45.69
2023-03-30T10:03:29.361Z,49.33
2023-03-30T10:04:29.009Z,55.18
2023-03-30T10:05:28.966Z,66.96
2023-03-30T10:06:28.972Z,73.54
2023-03-30T10:07:28.930Z,77.65
2023-03-30T10:08:28.902Z,79.28
2023-03-30T10:09:28.944Z,79.65
2023-03-30T10:10:28.914Z,80.96
2023-03-30T10:11:28.875Z,84.71
2023-03-30T10:12:28.838Z,93.12
2023-03-30T10:13:28.875Z,104.10
2023-03-30T10:14:29.072Z,106.50
2023-03-30T10:15:28.816Z,100.04
2023-03-30T10:16:28.882Z,105.14
2023-03-30T10:17:28.780Z,109.57
2023-03-30T10:18:28.781Z,106.50
2023-03-30T10:19:28.878Z,109.70
2023-03-30T10:20:28.854Z,108.64
2023-03-30T10:21:28.926Z,109.39
2023-03-30T10:22:28.970Z,105.03
2023-03-30T10:23:29.024Z,102.34
2023-03-30T10:24:29.073Z,98.26
2023-03-30T10:25:29.171Z,88.73
2023-03-30T10:26:29.169Z,78.56
2023-03-30T10:27:29.246Z,68.45
2023-03-30T10:28:29.263Z,49.23
2023-03-30T10:29:29.312Z,55.42
2023-03-30T10:30:29.358Z,59.48
2023-03-30T10:31:29.429Z,57.73
2023-03-30T10:32:29.553Z,69.71
2023-03-30T10:33:29.517Z,63.14
2023-03-30T10:34:29.559Z,58.79
2023-03-30T10:35:29.535Z,53.38
2023-03-30T10:36:29.529Z,47.90
2023-03-30T10:37:29.466Z,43.39
2023-03-30T10:38:29.434Z,52.14
2023-03-30T10:39:29.481Z,58.76
2023-03-30T10:40:29.392Z,63.42
2023-03-30T10:41:29.374Z,65.26
2023-03-30T10:42:29.398Z,64.47
2023-03-30T10:43:30.014Z,55.50
2023-03-30T10:44:29.304Z,39.08
2023-03-30T10:45:29.275Z,49.08
2023-03-30T10:46:29.274Z,28.26
2023-03-30T10:47:29.343Z,31.03
2023-03-30T10:48:29.215Z,16.64
2023-03-30T10:49:29.198Z,9.61
2023-03-30T10:50:29.231Z,13.26
2023-03-30T10:51:29.281Z,17.14
2023-03-30T10:52:29.282Z,20.14
2023-03-30T10:53:29.322Z,27.06
2023-03-30T10:54:29.454Z,30.52
2023-03-30T10:55:29.430Z,37.07
2023-03-30T10:56:29.461Z,43.60
2023-03-30T10:57:29.538Z,27.57
2023-03-30T10:58:29.550Z,26.74
2023-03-30T10:59:29.575Z,16.96
2023-03-30T11:00:29.597Z,17.85
2023-03-30T11:01:29.597Z,11.79
2023-03-30T11:02:29.670Z,17.73
2023-03-30T11:03:29.783Z,11.53
2023-03-30T11:04:29.659Z,11.61
2023-03-30T11:05:32.367Z,12.54
2023-03-30T11:06:29.570Z,11.89
2023-03-30T11:07:29.602Z,13.36
2023-03-30T11:08:29.514Z,16.89
2023-03-30T11:09:29.518Z,11.81
2023-03-30T11:10:29.568Z,11.58
2023-03-30T11:11:29.471Z,13.44
2023-03-30T11:12:29.452Z,13.24
2023-03-30T11:13:29.424Z,20.48
2023-03-30T11:14:29.419Z,11.94
2023-03-30T11:15:29.552Z,12.08
2023-03-30T11:16:29.455Z,10.25
2023-03-30T11:17:29.410Z,15.37
2023-03-30T11:18:29.385Z,17.80
2023-03-30T11:19:29.459Z,21.59
2023-03-30T11:20:29.473Z,23.88
2023-03-30T11:21:29.543Z,27.31
2023-03-30T11:22:32.040Z,24.98
2023-03-30T11:23:29.501Z,20.90
2023-03-30T11:24:29.481Z,27.33
2023-03-30T11:25:29.437Z,17.68
2023-03-30T11:26:29.467Z,19.09
2023-03-30T11:27:29.465Z,25.77
2023-03-30T11:28:29.373Z,33.84
2023-03-30T11:29:29.407Z,35.35
2023-03-30T11:30:29.372Z,38.92
2023-03-30T11:31:29.370Z,43.46
2023-03-30T11:32:29.417Z,52.66
2023-03-30T11:33:29.278Z,54.49
2023-03-30T11:34:29.237Z,66.58
2023-03-30T11:35:29.212Z,73.63
2023-03-30T11:36:29.178Z,77.64
2023-03-30T11:37:29.164Z,81.12
2023-03-30T11:38:29.137Z,80.17
2023-03-30T11:39:32.667Z,84.84
2023-03-30T11:40:29.068Z,84.99
2023-03-30T11:41:29.038Z,85.36
2023-03-30T11:42:29.018Z,84.27
2023-03-30T11:43:28.966Z,86.18
2023-03-30T11:44:28.934Z,89.33
2023-03-30T11:45:28.917Z,90.15
2023-03-30T11:46:28.948Z,91.04
2023-03-30T11:47:28.905Z,90.78
2023-03-30T11:48:28.833Z,88.04
2023-03-30T11:49:28.802Z,87.74
2023-03-30T11:50:28.765Z,89.09
2023-03-30T11:51:28.749Z,86.46
2023-03-30T11:52:28.746Z,87.92
2023-03-30T11:53:28.715Z,87.87
2023-03-30T11:54:28.729Z,86.86
2023-03-30T11:55:28.729Z,86.94
2023-03-30T11:56:28.616Z,87.29
2023-03-30T11:57:28.620Z,81.25
2023-03-30T11:58:28.565Z,81.01
2023-03-30T11:59:28.573Z,79.17
2023-03-30T12:00:28.515Z,78.76
2023-03-30T12:01:28.507Z,79.73
2023-03-30T12:02:28.541Z,79.47
2023-03-30T12:03:28.548Z,80.41
2023-03-30T12:04:28.478Z,80.68
2023-03-30T12:05:28.391Z,81.05
2023-03-30T12:06:28.378Z,81.84
2023-03-30T12:07:28.363Z,80.76
2023-03-30T12:08:28.329Z,77.27
2023-03-30T12:09:28.350Z,78.65
2023-03-30T12:10:28.279Z,74.94
2023-03-30T12:11:28.262Z,71.42
2023-03-30T12:12:28.237Z,72.76
2023-03-30T12:13:32.013Z,71.92
2023-03-30T12:14:29.186Z,72.09
2023-03-30T12:15:28.153Z,69.26
2023-03-30T12:16:28.458Z,72.33
2023-03-30T12:17:28.154Z,70.88
2023-03-30T12:18:28.126Z,70.68
2023-03-30T12:19:28.078Z,67.96
2023-03-30T12:20:28.035Z,69.37
2023-03-30T12:21:28.025Z,69.13
2023-03-30T12:22:28.046Z,67.75
2023-03-30T12:23:27.963Z,66.36
2023-03-30T12:24:27.945Z,65.60
2023-03-30T12:25:27.938Z,63.57
2023-03-30T12:26:27.881Z,64.54
2023-03-30T12:27:27.868Z,65.10
2023-03-30T12:28:38.690Z,63.66
2023-03-30T12:30:27.777Z,63.78
2023-03-30T12:31:27.812Z,63.81
2023-03-30T12:32:29.064Z,62.82
2023-03-30T12:33:27.725Z,63.77
2023-03-30T12:34:27.694Z,63.71
2023-03-30T12:35:27.695Z,62.30
2023-03-30T12:36:27.640Z,58.41
2023-03-30T12:37:27.622Z,59.76
2023-03-30T12:38:27.651Z,56.67
2023-03-30T12:39:27.564Z,57.33
2023-03-30T12:40:27.597Z,55.48
2023-03-30T12:41:27.541Z,55.61
2023-03-30T12:42:27.654Z,50.74
2023-03-30T12:43:27.482Z,50.14
2023-03-30T12:44:27.460Z,51.14
2023-03-30T12:45:27.453Z,50.93
2023-03-30T12:46:27.415Z,50.96
2023-03-30T12:47:27.431Z,50.94
2023-03-30T12:48:27.357Z,49.13
2023-03-30T12:49:27.330Z,46.71
2023-03-30T12:50:27.286Z,47.69
2023-03-30T12:51:27.254Z,46.09
2023-03-30T12:52:27.261Z,45.96
2023-03-30T12:53:27.254Z,44.19
2023-03-30T12:54:27.195Z,46.06
2023-03-30T12:55:27.198Z,46.28
2023-03-30T12:56:27.182Z,43.20
2023-03-30T12:57:27.159Z,43.02
2023-03-30T12:58:27.096Z,40.63
2023-03-30T12:59:27.092Z,40.15
2023-03-30T13:00:27.068Z,39.87
2023-03-30T13:01:27.105Z,39.86
2023-03-30T13:02:27.040Z,38.44
2023-03-30T13:03:27.003Z,38.25
2023-03-30T13:04:27.091Z,37.36
2023-03-30T13:05:27.046Z,35.80
2023-03-30T13:06:27.041Z,34.99
2023-03-30T13:07:27.013Z,35.05
2023-03-30T13:08:26.999Z,35.22
2023-03-30T13:09:26.942Z,36.04
2023-03-30T13:10:26.949Z,36.51
2023-03-30T13:11:26.904Z,36.18
2023-03-30T13:12:26.864Z,38.18